createdAt,value
2017-10-15T00:00:24.979Z,31.60
2017-10-15T00:01:24.974Z,32.20
2017-10-15T00:02:24.975Z,34.30
2017-10-15T00:03:24.991Z,42.60
2017-10-15T00:04:24.985Z,34.50
2017-10-15T00:05:24.993Z,32.00
2017-10-15T00:06:24.992Z,33.50
2017-10-15T00:07:25.001Z,34.40
2017-10-15T00:08:25.000Z,33.80
2017-10-15T00:09:25.024Z,28.60
2017-10-15T00:10:25.019Z,36.90
2017-10-15T00:11:25.017Z,32.10
2017-10-15T00:12:25.018Z,32.90
2017-10-15T00:13:25.023Z,32.20
2017-10-15T00:14:25.032Z,35.00
2017-10-15T00:15:25.032Z,33.90
2017-10-15T00:16:25.037Z,34.40
2017-10-15T00:17:25.041Z,31.40
2017-10-15T00:18:25.063Z,34.20
2017-10-15T00:19:25.051Z,30.70
2017-10-15T00:20:25.052Z,32.80
2017-10-15T00:21:25.058Z,35.60
2017-10-15T00:22:25.059Z,36.30
2017-10-15T00:23:25.067Z,33.30
2017-10-15T00:24:25.072Z,39.20
2017-10-15T00:25:25.075Z,32.70
2017-10-15T00:26:25.078Z,30.00
2017-10-15T00:27:25.083Z,32.90
2017-10-15T00:28:25.091Z,32.90
2017-10-15T00:29:25.090Z,33.10
2017-10-15T00:30:25.097Z,31.40
2017-10-15T00:31:25.096Z,31.30
2017-10-15T00:32:25.105Z,32.40
2017-10-15T00:33:25.109Z,30.50
2017-10-15T00:34:25.113Z,33.80
2017-10-15T00:35:25.117Z,35.50
2017-10-15T00:36:25.123Z,39.00
2017-10-15T00:37:25.129Z,34.90
2017-10-15T00:38:25.140Z,34.40
2017-10-15T00:39:25.135Z,33.40
2017-10-15T00:40:25.150Z,40.20
2017-10-15T00:41:25.144Z,32.60
2017-10-15T00:42:25.146Z,34.00
2017-10-15T00:43:25.179Z,34.10
2017-10-15T00:44:25.152Z,37.30
2017-10-15T00:45:25.163Z,37.60
2017-10-15T00:46:25.164Z,33.00
2017-10-15T00:47:25.170Z,42.60
2017-10-15T00:48:25.171Z,39.70
2017-10-15T00:49:25.174Z,38.60
2017-10-15T00:50:25.188Z,34.70
2017-10-15T00:51:25.182Z,34.90
2017-10-15T00:52:25.198Z,33.80
2017-10-15T00:53:25.192Z,33.50
2017-10-15T00:54:25.200Z,34.50
2017-10-15T00:55:25.200Z,42.00
2017-10-15T00:56:25.207Z,33.50
2017-10-15T00:57:25.211Z,34.80
2017-10-15T00:58:25.217Z,36.10
2017-10-15T00:59:25.219Z,37.30
2017-10-15T01:00:25.227Z,38.70
2017-10-15T01:01:25.230Z,40.50
2017-10-15T01:02:25.236Z,40.00
2017-10-15T01:03:25.233Z,32.10
2017-10-15T01:04:25.244Z,37.60
2017-10-15T01:05:25.241Z,33.80
2017-10-15T01:06:25.246Z,33.40
2017-10-15T01:07:25.259Z,32.60
2017-10-15T01:08:25.259Z,34.40
2017-10-15T01:09:25.260Z,32.30
2017-10-15T01:10:25.265Z,33.50
2017-10-15T01:11:25.263Z,36.60
2017-10-15T01:12:25.265Z,39.70
2017-10-15T01:13:25.275Z,33.80
2017-10-15T01:14:25.283Z,34.30
2017-10-15T01:15:25.283Z,33.10
2017-10-15T01:16:25.291Z,29.80
2017-10-15T01:17:25.293Z,36.10
2017-10-15T01:18:25.295Z,30.70
2017-10-15T01:19:25.300Z,38.90
2017-10-15T01:20:25.326Z,30.30
2017-10-15T01:21:25.308Z,35.70
2017-10-15T01:22:25.315Z,30.70
2017-10-15T01:23:25.319Z,39.30
2017-10-15T01:24:25.331Z,28.90
2017-10-15T01:25:25.331Z,34.20
2017-10-15T01:26:25.331Z,42.40
2017-10-15T01:27:25.333Z,32.60
2017-10-15T01:28:25.342Z,34.80
2017-10-15T01:29:25.343Z,32.90
2017-10-15T01:30:25.351Z,33.60
2017-10-15T01:31:25.349Z,35.20
2017-10-15T01:32:25.350Z,44.50
2017-10-15T01:33:25.354Z,39.90
2017-10-15T01:34:25.358Z,37.60
2017-10-15T01:35:25.366Z,37.10
2017-10-15T01:36:25.369Z,40.80
2017-10-15T01:37:25.374Z,38.10
2017-10-15T01:38:25.376Z,38.70
2017-10-15T01:39:25.382Z,40.40
2017-10-15T01:40:25.386Z,43.70
2017-10-15T01:41:25.393Z,34.90
2017-10-15T01:42:25.389Z,36.70
2017-10-15T01:43:25.392Z,41.90
2017-10-15T01:44:25.401Z,32.30
2017-10-15T01:45:25.407Z,43.00
2017-10-15T01:46:25.407Z,35.40
2017-10-15T01:47:25.409Z,33.70
2017-10-15T01:48:25.419Z,31.50
2017-10-15T01:49:25.413Z,35.90
2017-10-15T01:50:25.423Z,35.00
2017-10-15T01:51:25.425Z,37.10
2017-10-15T01:52:25.462Z,34.70
2017-10-15T01:53:25.435Z,41.10
2017-10-15T01:54:25.439Z,38.40
2017-10-15T01:55:25.440Z,43.60
2017-10-15T01:56:25.442Z,33.90
2017-10-15T01:57:25.443Z,29.00
2017-10-15T01:58:25.450Z,35.80
2017-10-15T01:59:25.458Z,35.20
2017-10-15T02:00:25.457Z,41.20
2017-10-15T02:01:25.465Z,35.70
2017-10-15T02:02:25.464Z,35.10
2017-10-15T02:03:25.467Z,34.30
2017-10-15T02:04:25.472Z,34.80
2017-10-15T02:05:25.474Z,39.10
2017-10-15T02:06:25.492Z,37.10
2017-10-15T02:07:25.483Z,44.40
2017-10-15T02:08:25.484Z,35.00
2017-10-15T02:09:25.492Z,34.60
2017-10-15T02:10:25.501Z,40.30
2017-10-15T02:11:25.501Z,35.80
2017-10-15T02:12:25.505Z,37.60
2017-10-15T02:13:25.609Z,33.30
2017-10-15T02:14:25.514Z,38.60
2017-10-15T02:15:25.511Z,42.70
2017-10-15T02:16:25.512Z,44.60
2017-10-15T02:17:25.530Z,41.70
2017-10-15T02:18:25.524Z,45.60
2017-10-15T02:19:25.525Z,45.80
2017-10-15T02:20:25.527Z,40.50
2017-10-15T02:21:25.533Z,41.20
2017-10-15T02:22:25.533Z,49.20
2017-10-15T02:23:25.537Z,38.40
2017-10-15T02:24:25.542Z,39.30
2017-10-15T02:25:25.542Z,42.30
2017-10-15T02:26:25.555Z,38.50
2017-10-15T02:27:25.552Z,48.50
2017-10-15T02:28:25.557Z,42.30
2017-10-15T02:29:25.555Z,44.80
2017-10-15T02:30:25.563Z,39.60
2017-10-15T02:31:25.568Z,42.70
2017-10-15T02:32:25.574Z,39.10
2017-10-15T02:33:25.571Z,39.00
2017-10-15T02:34:25.576Z,45.00
2017-10-15T02:35:25.577Z,38.00
2017-10-15T02:36:25.592Z,40.20
2017-10-15T02:37:25.586Z,38.90
2017-10-15T02:38:25.593Z,44.50
2017-10-15T02:39:25.592Z,37.40
2017-10-15T02:40:25.595Z,37.30
2017-10-15T02:41:25.601Z,47.10
2017-10-15T02:42:25.602Z,41.50
2017-10-15T02:43:25.619Z,36.10
2017-10-15T02:44:25.610Z,44.80
2017-10-15T02:45:25.609Z,46.20
2017-10-15T02:46:25.621Z,43.00
2017-10-15T02:47:25.618Z,37.90
2017-10-15T02:48:25.624Z,40.20
2017-10-15T02:49:25.627Z,39.90
2017-10-15T02:50:25.634Z,36.50
2017-10-15T02:51:25.633Z,45.60
2017-10-15T02:52:25.635Z,39.60
2017-10-15T02:53:25.642Z,37.30
2017-10-15T02:54:25.643Z,41.20
2017-10-15T02:55:25.655Z,38.30
2017-10-15T02:56:25.652Z,39.00
2017-10-15T02:57:25.661Z,35.50
2017-10-15T02:58:25.659Z,36.70
2017-10-15T02:59:25.663Z,37.00
2017-10-15T03:00:25.670Z,35.70
2017-10-15T03:01:25.669Z,46.30
2017-10-15T03:02:25.674Z,39.90
2017-10-15T03:03:25.676Z,36.80
2017-10-15T03:04:25.687Z,38.10
2017-10-15T03:05:25.682Z,37.20
2017-10-15T03:06:25.686Z,42.10
2017-10-15T03:07:25.694Z,40.70
2017-10-15T03:08:25.693Z,37.30
2017-10-15T03:09:25.694Z,43.20
2017-10-15T03:10:25.701Z,35.20
2017-10-15T03:11:25.708Z,44.70
2017-10-15T03:12:25.703Z,40.30
2017-10-15T03:13:25.714Z,41.30
2017-10-15T03:14:25.713Z,43.70
2017-10-15T03:15:25.715Z,41.90
2017-10-15T03:16:25.715Z,40.60
2017-10-15T03:17:25.722Z,43.60
2017-10-15T03:18:25.734Z,49.60
2017-10-15T03:19:25.731Z,39.00
2017-10-15T03:20:25.742Z,41.00
2017-10-15T03:21:25.741Z,43.10
2017-10-15T03:22:25.742Z,39.00
2017-10-15T03:23:25.742Z,41.30
2017-10-15T03:24:25.747Z,44.30
2017-10-15T03:25:25.753Z,43.20
2017-10-15T03:26:25.765Z,45.20
2017-10-15T03:27:25.761Z,40.90
2017-10-15T03:28:25.767Z,43.00
2017-10-15T03:29:25.771Z,41.80
2017-10-15T03:30:25.770Z,52.00
2017-10-15T03:31:25.772Z,43.20
2017-10-15T03:32:25.778Z,42.80
2017-10-15T03:33:25.785Z,42.90
2017-10-15T03:34:25.786Z,44.90
2017-10-15T03:35:25.788Z,45.60
2017-10-15T03:36:25.794Z,45.80
2017-10-15T03:37:25.793Z,41.30
2017-10-15T03:38:25.816Z,37.60
2017-10-15T03:39:25.804Z,38.20
2017-10-15T03:40:25.803Z,44.70
2017-10-15T03:41:25.810Z,43.90
2017-10-15T03:42:25.811Z,50.50
2017-10-15T03:43:25.821Z,44.00
2017-10-15T03:44:25.820Z,46.50
2017-10-15T03:45:25.821Z,44.80
2017-10-15T03:46:25.835Z,44.40
2017-10-15T03:47:25.827Z,49.70
2017-10-15T03:48:25.834Z,44.10
2017-10-15T03:49:25.836Z,46.30
2017-10-15T03:50:25.842Z,44.60
2017-10-15T03:51:25.838Z,48.30
2017-10-15T03:52:25.848Z,44.10
2017-10-15T03:53:25.848Z,41.50
2017-10-15T03:54:25.857Z,45.20
2017-10-15T03:55:25.861Z,42.20
2017-10-15T03:56:25.857Z,49.40
2017-10-15T03:57:25.862Z,51.10
2017-10-15T03:58:25.870Z,43.90
2017-10-15T03:59:25.869Z,42.60
2017-10-15T04:00:28.370Z,45.10
2017-10-15T04:01:25.878Z,44.30
2017-10-15T04:02:25.882Z,47.90
2017-10-15T04:03:25.883Z,42.50
2017-10-15T04:04:25.888Z,42.50
2017-10-15T04:05:25.893Z,47.40
2017-10-15T04:06:25.891Z,43.70
2017-10-15T04:07:25.897Z,46.60
2017-10-15T04:08:25.901Z,40.30
2017-10-15T04:09:26.722Z,47.00
2017-10-15T04:10:26.292Z,46.70
2017-10-15T04:11:25.933Z,42.30
2017-10-15T04:12:25.911Z,42.70
2017-10-15T04:13:25.921Z,47.60
2017-10-15T04:14:25.925Z,50.40
2017-10-15T04:15:25.929Z,56.40
2017-10-15T04:16:25.930Z,48.80
2017-10-15T04:17:25.933Z,42.70
2017-10-15T04:18:25.935Z,48.60
2017-10-15T04:19:25.941Z,47.90
2017-10-15T04:20:25.947Z,53.70
2017-10-15T04:21:25.946Z,40.20
2017-10-15T04:22:25.948Z,48.10
2017-10-15T04:23:25.958Z,59.00
2017-10-15T04:24:25.963Z,55.10
2017-10-15T04:25:25.957Z,44.50
2017-10-15T04:26:25.993Z,57.30
2017-10-15T04:27:25.971Z,78.90
2017-10-15T04:28:25.971Z,63.80
2017-10-15T04:29:26.832Z,84.20
2017-10-15T04:30:28.613Z,69.90
2017-10-15T04:31:25.985Z,59.70
2017-10-15T04:32:25.988Z,59.00
2017-10-15T04:33:25.994Z,53.70
2017-10-15T04:34:25.992Z,47.90
2017-10-15T04:35:25.992Z,55.70
2017-10-15T04:36:26.000Z,55.10
2017-10-15T04:37:26.003Z,42.10
2017-10-15T04:38:26.013Z,48.70
2017-10-15T04:39:26.012Z,48.00
2017-10-15T04:40:26.014Z,47.20
2017-10-15T04:41:26.703Z,48.00
2017-10-15T04:42:26.019Z,49.30
2017-10-15T04:43:26.027Z,45.10
2017-10-15T04:44:26.032Z,48.10
2017-10-15T04:45:26.028Z,50.30
2017-10-15T04:46:26.038Z,46.70
2017-10-15T04:47:26.037Z,54.80
2017-10-15T04:48:26.048Z,55.30
2017-10-15T04:49:26.047Z,51.60
2017-10-15T04:50:26.133Z,46.60
2017-10-15T04:51:26.055Z,44.80
2017-10-15T04:52:26.121Z,57.90
2017-10-15T04:53:26.062Z,65.60
2017-10-15T04:54:26.064Z,55.30
2017-10-15T04:55:26.068Z,45.50
2017-10-15T04:56:26.072Z,43.00
2017-10-15T04:57:26.071Z,49.60
2017-10-15T04:58:26.079Z,45.40
2017-10-15T04:59:26.081Z,44.60
2017-10-15T05:00:26.083Z,46.20
2017-10-15T05:01:26.088Z,44.50
2017-10-15T05:02:26.093Z,53.10
2017-10-15T05:03:26.098Z,42.40
2017-10-15T05:04:26.096Z,51.90
2017-10-15T05:05:26.103Z,49.80
2017-10-15T05:06:26.104Z,39.30
2017-10-15T05:07:26.122Z,45.90
2017-10-15T05:08:26.111Z,46.20
2017-10-15T05:09:26.120Z,48.70
2017-10-15T05:10:26.131Z,46.50
2017-10-15T05:11:26.123Z,50.90
2017-10-15T05:12:26.135Z,51.20
2017-10-15T05:13:26.134Z,50.00
2017-10-15T05:14:26.142Z,46.20
2017-10-15T05:15:26.137Z,48.40
2017-10-15T05:16:26.142Z,59.30
2017-10-15T05:17:26.146Z,47.20
2017-10-15T05:18:26.158Z,43.80
2017-10-15T05:19:26.152Z,50.60
2017-10-15T05:20:26.160Z,38.60
2017-10-15T05:21:26.161Z,46.30
2017-10-15T05:22:26.167Z,47.20
2017-10-15T05:23:26.173Z,42.80
2017-10-15T05:24:26.175Z,43.80
2017-10-15T05:25:26.173Z,42.40
2017-10-15T05:26:26.209Z,44.60
2017-10-15T05:27:26.181Z,48.10
2017-10-15T05:28:26.180Z,54.30
2017-10-15T05:29:26.188Z,45.80
2017-10-15T05:30:26.192Z,49.70
2017-10-15T05:31:26.198Z,47.70
2017-10-15T05:32:26.202Z,50.90
2017-10-15T05:33:26.203Z,52.80
2017-10-15T05:34:26.214Z,48.00
2017-10-15T05:35:26.211Z,46.90
2017-10-15T05:36:26.214Z,50.50
2017-10-15T05:37:26.224Z,53.60
2017-10-15T05:38:26.220Z,43.30
2017-10-15T05:39:26.229Z,53.40
2017-10-15T05:40:26.228Z,52.90
2017-10-15T05:41:26.232Z,54.30
2017-10-15T05:42:26.239Z,49.00
2017-10-15T05:43:26.240Z,57.10
2017-10-15T05:44:26.244Z,52.50
2017-10-15T05:45:26.245Z,48.20
2017-10-15T05:46:26.254Z,46.50
2017-10-15T05:47:26.256Z,45.50
2017-10-15T05:48:26.262Z,49.10
2017-10-15T05:49:26.267Z,47.50
2017-10-15T05:50:26.276Z,58.70
2017-10-15T05:51:26.271Z,45.10
2017-10-15T05:52:26.272Z,45.90
2017-10-15T05:53:26.282Z,49.30
2017-10-15T05:54:26.283Z,59.50
2017-10-15T05:55:26.283Z,56.60
2017-10-15T05:56:26.289Z,47.60
2017-10-15T05:57:26.299Z,42.30
2017-10-15T05:58:26.293Z,63.80
2017-10-15T05:59:26.303Z,45.90
2017-10-15T06:00:26.304Z,54.20
2017-10-15T06:01:26.305Z,50.80
2017-10-15T06:02:26.310Z,48.20
2017-10-15T06:03:26.308Z,49.70
2017-10-15T06:04:26.322Z,48.70
2017-10-15T06:05:26.322Z,44.00
2017-10-15T06:06:26.330Z,56.70
2017-10-15T06:07:26.330Z,42.10
2017-10-15T06:08:26.333Z,54.70
2017-10-15T06:09:26.332Z,46.70
2017-10-15T06:10:26.338Z,56.60
2017-10-15T06:11:26.345Z,50.80
2017-10-15T06:12:26.342Z,50.20
2017-10-15T06:13:26.346Z,54.80
2017-10-15T06:14:26.352Z,60.30
2017-10-15T06:15:26.353Z,58.80
2017-10-15T06:16:26.364Z,56.20
2017-10-15T06:17:26.368Z,57.00
2017-10-15T06:18:26.375Z,53.30
2017-10-15T06:19:26.372Z,55.00
2017-10-15T06:20:26.376Z,49.70
2017-10-15T06:21:26.381Z,61.60
2017-10-15T06:22:26.380Z,61.40
2017-10-15T06:23:26.383Z,44.50
2017-10-15T06:24:26.395Z,46.30
2017-10-15T06:25:26.393Z,45.70
2017-10-15T06:26:26.396Z,44.60
2017-10-15T06:27:26.402Z,42.00
2017-10-15T06:28:26.403Z,44.40
2017-10-15T06:29:26.406Z,54.70
2017-10-15T06:30:26.467Z,43.10
2017-10-15T06:31:26.419Z,56.20
2017-10-15T06:32:26.421Z,47.40
2017-10-15T06:33:26.421Z,49.40
2017-10-15T06:34:26.431Z,48.90
2017-10-15T06:35:26.431Z,48.20
2017-10-15T06:36:26.433Z,40.90
2017-10-15T06:37:26.435Z,52.10
2017-10-15T06:38:26.439Z,66.30
2017-10-15T06:39:26.448Z,57.10
2017-10-15T06:40:26.447Z,45.10
2017-10-15T06:41:26.459Z,53.90
2017-10-15T06:42:26.457Z,55.10
2017-10-15T06:43:26.461Z,40.90
2017-10-15T06:44:26.471Z,55.60
2017-10-15T06:45:26.474Z,75.10
2017-10-15T06:46:26.471Z,48.40
2017-10-15T06:47:26.476Z,53.90
2017-10-15T06:48:26.478Z,43.80
2017-10-15T06:49:26.478Z,43.20
2017-10-15T06:50:26.490Z,57.40
2017-10-15T06:51:26.488Z,56.90
2017-10-15T06:52:26.494Z,42.40
2017-10-15T06:53:26.498Z,41.50
2017-10-15T06:54:26.505Z,44.80
2017-10-15T06:55:26.508Z,52.70
2017-10-15T06:56:26.506Z,47.60
2017-10-15T06:57:26.511Z,52.70
2017-10-15T06:58:26.513Z,44.90
2017-10-15T06:59:26.527Z,35.60
2017-10-15T07:00:26.522Z,52.30
2017-10-15T07:01:26.525Z,47.60
2017-10-15T07:02:26.536Z,39.70
2017-10-15T07:03:26.531Z,56.30
2017-10-15T07:04:26.544Z,60.80
2017-10-15T07:05:26.543Z,52.20
2017-10-15T07:06:26.544Z,39.80
2017-10-15T07:07:26.548Z,30.80
2017-10-15T07:08:26.548Z,36.00
2017-10-15T07:09:26.561Z,49.00
2017-10-15T07:10:26.563Z,30.60
2017-10-15T07:11:26.564Z,31.70
2017-10-15T07:12:26.565Z,50.70
2017-10-15T07:13:26.568Z,97.30
2017-10-15T07:14:30.481Z,84.00
2017-10-15T07:15:26.573Z,47.10
2017-10-15T07:16:26.580Z,27.40
2017-10-15T07:17:26.590Z,36.20
2017-10-15T07:18:26.588Z,35.70
2017-10-15T07:19:26.594Z,28.90
2017-10-15T07:20:26.594Z,32.80
2017-10-15T07:21:26.598Z,28.40
2017-10-15T07:22:26.604Z,23.20
2017-10-15T07:23:26.605Z,27.50
2017-10-15T07:24:26.615Z,23.90
2017-10-15T07:25:26.615Z,28.10
2017-10-15T07:26:26.613Z,22.80
2017-10-15T07:27:26.622Z,31.10
2017-10-15T07:28:26.624Z,21.00
2017-10-15T07:29:26.629Z,28.00
2017-10-15T07:30:26.637Z,27.10
2017-10-15T07:31:26.633Z,26.70
2017-10-15T07:32:26.633Z,29.20
2017-10-15T07:33:26.644Z,25.10
2017-10-15T07:34:26.643Z,36.70
2017-10-15T07:35:26.647Z,25.70
2017-10-15T07:36:26.654Z,28.70
2017-10-15T07:37:26.661Z,25.10
2017-10-15T07:38:26.664Z,27.60
2017-10-15T07:39:26.662Z,24.30
2017-10-15T07:40:26.674Z,25.90
2017-10-15T07:41:26.670Z,26.60
2017-10-15T07:42:26.673Z,25.30
2017-10-15T07:43:26.680Z,25.70
2017-10-15T07:44:26.689Z,26.00
2017-10-15T07:45:26.694Z,25.50
2017-10-15T07:46:26.695Z,35.80
2017-10-15T07:47:26.693Z,35.30
2017-10-15T07:48:26.699Z,28.20
2017-10-15T07:49:26.704Z,26.00
2017-10-15T07:50:26.708Z,28.60
2017-10-15T07:51:26.714Z,28.10
2017-10-15T07:52:26.714Z,28.80
2017-10-15T07:53:26.730Z,34.60
2017-10-15T07:54:26.721Z,30.30
2017-10-15T07:55:26.734Z,29.90
2017-10-15T07:56:26.731Z,38.10
2017-10-15T07:57:26.730Z,27.90
2017-10-15T07:58:26.739Z,27.80
2017-10-15T07:59:26.739Z,28.70
2017-10-15T08:00:26.745Z,27.80
2017-10-15T08:01:26.747Z,29.00
2017-10-15T08:02:26.757Z,34.60
2017-10-15T08:03:26.755Z,30.80
2017-10-15T08:04:26.761Z,29.90
2017-10-15T08:05:26.763Z,32.00
2017-10-15T08:06:26.765Z,28.90
2017-10-15T08:07:26.778Z,30.70
2017-10-15T08:08:26.777Z,28.50
2017-10-15T08:09:26.778Z,27.90
2017-10-15T08:10:26.786Z,25.50
2017-10-15T08:11:26.787Z,30.00
2017-10-15T08:12:26.788Z,31.70
2017-10-15T08:13:26.794Z,31.40
2017-10-15T08:14:26.799Z,28.10
2017-10-15T08:15:26.804Z,29.30
2017-10-15T08:16:26.808Z,28.40
2017-10-15T08:17:26.811Z,29.90
2017-10-15T08:18:26.816Z,31.90
2017-10-15T08:19:26.824Z,34.30
2017-10-15T08:20:26.823Z,30.40
2017-10-15T08:21:26.830Z,29.80
2017-10-15T08:22:26.833Z,31.70
2017-10-15T08:23:26.833Z,35.00
2017-10-15T08:24:26.841Z,29.50
2017-10-15T08:25:26.840Z,29.80
2017-10-15T08:26:26.849Z,30.20
2017-10-15T08:27:26.855Z,34.30
2017-10-15T08:28:26.856Z,35.30
2017-10-15T08:29:26.862Z,32.50
2017-10-15T08:30:26.869Z,32.60
2017-10-15T08:31:26.866Z,29.40
2017-10-15T08:32:26.873Z,33.90
2017-10-15T08:33:26.880Z,29.50
2017-10-15T08:34:26.884Z,33.90
2017-10-15T08:35:26.883Z,36.90
2017-10-15T08:36:26.895Z,38.40
2017-10-15T08:37:26.895Z,41.20
2017-10-15T08:38:26.895Z,42.10
2017-10-15T08:39:26.910Z,36.00
2017-10-15T08:40:26.904Z,35.10
2017-10-15T08:41:26.914Z,33.80
2017-10-15T08:42:26.915Z,34.40
2017-10-15T08:43:26.916Z,37.30
2017-10-15T08:44:26.925Z,33.50
2017-10-15T08:45:26.933Z,32.30
2017-10-15T08:46:26.935Z,35.60
2017-10-15T08:47:26.935Z,32.10
2017-10-15T08:48:26.940Z,35.30
2017-10-15T08:49:26.953Z,33.10
2017-10-15T08:50:26.950Z,31.90
2017-10-15T08:51:26.955Z,33.00
2017-10-15T08:52:26.957Z,32.90
2017-10-15T08:53:26.965Z,32.30
2017-10-15T08:54:26.975Z,29.50
2017-10-15T08:55:26.974Z,34.30
2017-10-15T08:56:26.978Z,29.40
2017-10-15T08:57:26.988Z,34.40
2017-10-15T08:58:26.991Z,33.50
2017-10-15T08:59:26.991Z,34.40
2017-10-15T09:00:27.000Z,36.20
2017-10-15T09:01:26.999Z,37.10
2017-10-15T09:02:27.010Z,34.30
2017-10-15T09:03:27.007Z,32.30
2017-10-15T09:04:27.013Z,38.70
2017-10-15T09:05:27.016Z,35.80
2017-10-15T09:06:27.025Z,34.40
2017-10-15T09:07:27.033Z,40.10
2017-10-15T09:08:27.039Z,35.90
2017-10-15T09:09:27.036Z,36.80
2017-10-15T09:10:27.048Z,37.40
2017-10-15T09:11:27.046Z,36.20
2017-10-15T09:12:27.059Z,38.00
2017-10-15T09:13:27.061Z,32.60
2017-10-15T09:14:27.064Z,33.10
2017-10-15T09:15:27.073Z,30.70
2017-10-15T09:16:27.075Z,32.70
2017-10-15T09:17:27.075Z,33.30
2017-10-15T09:18:27.083Z,32.30
2017-10-15T09:19:27.094Z,34.20
2017-10-15T09:20:27.093Z,32.70
2017-10-15T09:21:27.103Z,37.50
2017-10-15T09:22:27.098Z,32.80
2017-10-15T09:23:27.113Z,35.10
2017-10-15T09:24:27.113Z,33.50
2017-10-15T09:25:27.115Z,29.00
2017-10-15T09:26:27.126Z,30.00
2017-10-15T09:27:27.124Z,33.20
2017-10-15T09:28:27.138Z,34.50
2017-10-15T09:29:27.133Z,36.50
2017-10-15T09:30:27.144Z,34.60
2017-10-15T09:31:27.173Z,34.10
2017-10-15T09:32:27.151Z,34.30
2017-10-15T09:33:27.158Z,37.10
2017-10-15T09:34:27.160Z,31.60
2017-10-15T09:35:27.172Z,32.20
2017-10-15T09:36:27.178Z,34.40
2017-10-15T09:37:27.177Z,37.40
2017-10-15T09:38:27.184Z,43.70
2017-10-15T09:39:27.184Z,38.30
2017-10-15T09:40:27.193Z,34.40
2017-10-15T09:41:27.197Z,37.10
2017-10-15T09:42:27.208Z,33.50
2017-10-15T09:43:27.208Z,39.30
2017-10-15T09:44:27.220Z,37.80
2017-10-15T09:45:27.229Z,37.30
2017-10-15T09:46:27.225Z,41.40
2017-10-15T09:47:27.234Z,34.50
2017-10-15T09:48:27.231Z,41.70
2017-10-15T09:49:27.241Z,35.70
2017-10-15T09:50:27.246Z,36.20
2017-10-15T09:51:27.251Z,35.80
2017-10-15T09:52:27.256Z,39.60
2017-10-15T09:53:27.271Z,39.30
2017-10-15T09:54:27.274Z,35.60
2017-10-15T09:55:27.274Z,38.30
2017-10-15T09:56:27.281Z,33.20
2017-10-15T09:57:27.281Z,38.50
2017-10-15T09:58:27.294Z,37.10
2017-10-15T09:59:27.293Z,37.10
2017-10-15T10:00:27.298Z,34.70
2017-10-15T10:01:27.310Z,40.60
2017-10-15T10:02:27.315Z,35.30
2017-10-15T10:03:27.323Z,38.40
2017-10-15T10:04:27.327Z,35.50
2017-10-15T10:05:27.339Z,37.50
2017-10-15T10:06:27.334Z,37.40
2017-10-15T10:07:27.342Z,36.80
2017-10-15T10:08:27.352Z,36.80
2017-10-15T10:09:27.354Z,36.70
2017-10-15T10:10:27.365Z,39.90
2017-10-15T10:11:27.364Z,37.40
2017-10-15T10:12:27.376Z,39.40
2017-10-15T10:13:27.378Z,41.20
2017-10-15T10:14:27.383Z,40.10
2017-10-15T10:15:27.386Z,37.90
2017-10-15T10:16:27.392Z,35.70
2017-10-15T10:17:27.408Z,38.90
2017-10-15T10:18:27.404Z,36.60
2017-10-15T10:19:27.412Z,40.90
2017-10-15T10:20:27.423Z,41.10
2017-10-15T10:21:27.425Z,37.60
2017-10-15T10:22:27.433Z,41.60
2017-10-15T10:23:27.437Z,37.70
2017-10-15T10:24:27.445Z,36.80
2017-10-15T10:25:27.450Z,43.80
2017-10-15T10:26:27.454Z,39.80
2017-10-15T10:27:27.459Z,41.30
2017-10-15T10:28:27.477Z,39.10
2017-10-15T10:29:27.476Z,39.00
2017-10-15T10:30:27.483Z,38.00
2017-10-15T10:31:27.487Z,46.60
2017-10-15T10:32:27.492Z,42.30
2017-10-15T10:33:27.499Z,38.60
2017-10-15T10:34:27.506Z,36.50
2017-10-15T10:35:27.510Z,38.60
2017-10-15T10:36:27.579Z,41.30
2017-10-15T10:37:27.525Z,42.40
2017-10-15T10:38:27.530Z,40.50
2017-10-15T10:39:27.540Z,41.10
2017-10-15T10:40:27.546Z,40.90
2017-10-15T10:41:27.549Z,43.30
2017-10-15T10:42:27.563Z,41.40
2017-10-15T10:43:27.564Z,39.50
2017-10-15T10:44:27.576Z,40.40
2017-10-15T10:45:27.575Z,37.10
2017-10-15T10:46:27.582Z,38.50
2017-10-15T10:47:27.595Z,45.30
2017-10-15T10:48:27.594Z,38.50
2017-10-15T10:49:27.610Z,36.80
2017-10-15T10:50:27.609Z,35.50
2017-10-15T10:51:27.619Z,37.50
2017-10-15T10:52:27.629Z,40.00
2017-10-15T10:53:27.633Z,43.80
2017-10-15T10:54:27.632Z,39.50
2017-10-15T10:55:27.640Z,38.80
2017-10-15T10:56:27.651Z,36.40
2017-10-15T10:57:27.659Z,39.70
2017-10-15T10:58:27.669Z,40.10
2017-10-15T10:59:27.675Z,40.10
2017-10-15T11:00:28.331Z,38.00
2017-10-15T11:01:27.689Z,34.70
2017-10-15T11:02:27.688Z,33.70
2017-10-15T11:03:27.694Z,35.70
2017-10-15T11:04:27.711Z,35.50
2017-10-15T11:05:27.713Z,36.60
2017-10-15T11:06:27.724Z,38.70
2017-10-15T11:07:27.804Z,39.50
2017-10-15T11:08:27.794Z,33.30
2017-10-15T11:09:28.370Z,35.90
2017-10-15T11:10:27.748Z,35.20
2017-10-15T11:11:28.163Z,34.80
2017-10-15T11:12:27.764Z,34.30
2017-10-15T11:13:27.771Z,32.90
2017-10-15T11:14:27.777Z,35.80
2017-10-15T11:15:27.782Z,31.70
2017-10-15T11:16:27.791Z,34.30
2017-10-15T11:17:27.799Z,33.90
2017-10-15T11:18:27.812Z,37.30
2017-10-15T11:19:27.814Z,34.50
2017-10-15T11:20:27.829Z,35.00
2017-10-15T11:21:27.833Z,35.10
2017-10-15T11:22:27.834Z,34.90
2017-10-15T11:23:27.841Z,40.10
2017-10-15T11:24:27.850Z,30.80
2017-10-15T11:25:27.860Z,31.60
2017-10-15T11:26:27.865Z,33.00
2017-10-15T11:27:27.873Z,30.00
2017-10-15T11:28:27.883Z,34.50
2017-10-15T11:29:27.885Z,33.60
2017-10-15T11:30:27.895Z,29.00
2017-10-15T11:31:27.913Z,34.60
2017-10-15T11:32:27.923Z,40.80
2017-10-15T11:33:27.914Z,28.30
2017-10-15T11:34:27.929Z,33.20
2017-10-15T11:35:27.937Z,30.10
2017-10-15T11:36:27.936Z,30.80
2017-10-15T11:37:27.951Z,26.50
2017-10-15T11:38:27.978Z,28.70
2017-10-15T11:39:27.963Z,29.40
2017-10-15T11:40:27.972Z,25.60
2017-10-15T11:41:27.986Z,26.80
2017-10-15T11:42:27.985Z,25.40
2017-10-15T11:43:28.003Z,33.50
2017-10-15T11:44:28.005Z,27.30
2017-10-15T11:45:28.015Z,30.90
2017-10-15T11:46:28.016Z,26.00
2017-10-15T11:47:28.022Z,25.40
2017-10-15T11:48:28.031Z,25.70
2017-10-15T11:49:28.045Z,33.40
2017-10-15T11:50:28.043Z,24.90
2017-10-15T11:51:28.055Z,26.20
2017-10-15T11:52:28.067Z,27.40
2017-10-15T11:53:28.071Z,27.60
2017-10-15T11:54:28.086Z,26.50
2017-10-15T11:55:28.089Z,22.40
2017-10-15T11:56:28.097Z,27.70
2017-10-15T11:57:28.101Z,24.50
2017-10-15T11:58:28.111Z,22.20
2017-10-15T11:59:28.116Z,20.80
2017-10-15T12:00:28.126Z,21.60
2017-10-15T12:01:28.135Z,18.70
2017-10-15T12:02:28.144Z,18.40
2017-10-15T12:03:28.154Z,19.60
2017-10-15T12:04:28.162Z,25.00
2017-10-15T12:05:28.170Z,21.00
2017-10-15T12:06:28.173Z,18.40
2017-10-15T12:07:28.203Z,21.60
2017-10-15T12:08:28.197Z,17.20
2017-10-15T12:09:28.203Z,23.70
2017-10-15T12:10:28.211Z,21.50
2017-10-15T12:11:28.220Z,18.00
2017-10-15T12:12:28.225Z,19.00
2017-10-15T12:13:28.234Z,19.40
2017-10-15T12:14:28.238Z,17.20
2017-10-15T12:15:28.245Z,18.80
2017-10-15T12:16:28.257Z,16.20
2017-10-15T12:17:28.266Z,18.10
2017-10-15T12:18:28.271Z,21.10
2017-10-15T12:19:28.280Z,18.20
2017-10-15T12:20:28.295Z,13.70
2017-10-15T12:21:28.302Z,15.80
2017-10-15T12:22:28.305Z,16.70
2017-10-15T12:23:28.315Z,18.70
2017-10-15T12:24:28.321Z,18.10
2017-10-15T12:25:28.328Z,15.40
2017-10-15T12:26:28.339Z,12.60
2017-10-15T12:27:28.349Z,12.30
2017-10-15T12:28:28.364Z,15.50
2017-10-15T12:29:28.372Z,16.50
2017-10-15T12:30:28.376Z,10.40
2017-10-15T12:31:28.390Z,13.20
2017-10-15T12:32:28.395Z,13.70
2017-10-15T12:33:28.985Z,9.90
2017-10-15T12:34:47.983Z,13.50
2017-10-15T12:35:28.781Z,11.60
2017-10-15T12:36:28.683Z,11.20
2017-10-15T12:37:29.076Z,17.30
2017-10-15T12:38:28.902Z,10.40
2017-10-15T12:39:28.569Z,8.60
2017-10-15T12:40:28.463Z,9.60
2017-10-15T12:41:28.466Z,8.30
2017-10-15T12:42:28.475Z,11.40
2017-10-15T12:43:28.485Z,7.50
2017-10-15T12:44:28.494Z,10.00
2017-10-15T12:45:28.495Z,8.20
2017-10-15T12:46:28.504Z,9.30
2017-10-15T12:47:28.515Z,8.50
2017-10-15T12:48:28.537Z,8.80
2017-10-15T12:49:28.530Z,5.50
2017-10-15T12:50:28.537Z,7.50
2017-10-15T12:51:28.543Z,10.50
2017-10-15T12:52:28.552Z,6.90
2017-10-15T12:53:28.566Z,7.50